createdAt,value
2023-03-11T00:00:00.618Z,101260
2023-03-11T00:01:00.616Z,101260
2023-03-11T00:02:00.616Z,101260
2023-03-11T00:03:01.554Z,101250
2023-03-11T00:04:00.598Z,101260
2023-03-11T00:05:00.702Z,101270
2023-03-11T00:06:01.521Z,101270
2023-03-11T00:07:00.618Z,101270
2023-03-11T00:08:00.819Z,101260
2023-03-11T00:09:00.640Z,101260
2023-03-11T00:10:00.620Z,101260
2023-03-11T00:11:00.652Z,101260
2023-03-11T00:12:00.869Z,101260
2023-03-11T00:13:01.193Z,101260
2023-03-11T00:14:00.576Z,101260
2023-03-11T00:15:00.587Z,101260
2023-03-11T00:16:00.690Z,101270
2023-03-11T00:17:00.626Z,101260
2023-03-11T00:18:01.046Z,101260
2023-03-11T00:19:00.615Z,101270
2023-03-11T00:20:00.737Z,101270
2023-03-11T00:21:00.685Z,101270
2023-03-11T00:22:01.225Z,101260
2023-03-11T00:23:01.299Z,101260
2023-03-11T00:24:00.605Z,101270
2023-03-11T00:25:00.597Z,101270
2023-03-11T00:26:00.622Z,101280
2023-03-11T00:27:00.600Z,101280
2023-03-11T00:28:00.822Z,101270
2023-03-11T00:29:00.672Z,101260
2023-03-11T00:30:00.644Z,101270
2023-03-11T00:31:01.024Z,101270
2023-03-11T00:32:00.648Z,101260
2023-03-11T00:33:00.653Z,101260
2023-03-11T00:34:00.611Z,101260
2023-03-11T00:35:00.780Z,101270
2023-03-11T00:36:00.643Z,101270
2023-03-11T00:37:00.566Z,101270
2023-03-11T00:38:02.991Z,101260
2023-03-11T00:39:01.529Z,101260
2023-03-11T00:40:00.602Z,101260
2023-03-11T00:41:00.646Z,101270
2023-03-11T00:42:00.623Z,101260
2023-03-11T00:43:00.898Z,101250
2023-03-11T00:44:00.622Z,101250
2023-03-11T00:45:00.618Z,101250
2023-03-11T00:46:00.688Z,101250
2023-03-11T00:47:00.844Z,101250
2023-03-11T00:48:00.590Z,101260
2023-03-11T00:49:00.739Z,101260
2023-03-11T00:50:00.582Z,101230
2023-03-11T00:51:00.616Z,101230
2023-03-11T00:52:00.614Z,101230
2023-03-11T00:53:01.062Z,101230
2023-03-11T00:54:00.648Z,101240
2023-03-11T00:55:00.579Z,101240
2023-03-11T00:56:05.467Z,101230
2023-03-11T00:57:00.622Z,101240
2023-03-11T00:58:02.516Z,101240
2023-03-11T00:59:00.622Z,101240
2023-03-11T01:00:00.853Z,101250
2023-03-11T01:01:05.759Z,101250
2023-03-11T01:02:00.627Z,101250
2023-03-11T01:03:00.607Z,101240
2023-03-11T01:04:00.648Z,101220
2023-03-11T01:05:00.845Z,101240
2023-03-11T01:06:00.670Z,101230
2023-03-11T01:07:00.701Z,101220
2023-03-11T01:08:01.145Z,101220
2023-03-11T01:09:00.613Z,101210
2023-03-11T01:10:01.082Z,101220
2023-03-11T01:11:00.868Z,101230
2023-03-11T01:12:00.601Z,101230
2023-03-11T01:13:00.736Z,101210
2023-03-11T01:14:01.307Z,101220
2023-03-11T01:15:01.057Z,101220
2023-03-11T01:16:00.828Z,101230
2023-03-11T01:17:00.624Z,101230
2023-03-11T01:18:01.116Z,101230
2023-03-11T01:19:00.595Z,101230
2023-03-11T01:20:00.906Z,101230
2023-03-11T01:21:00.668Z,101220
2023-03-11T01:22:00.627Z,101220
2023-03-11T01:23:00.641Z,101220
2023-03-11T01:24:00.649Z,101220
2023-03-11T01:25:00.771Z,101220
2023-03-11T01:26:00.577Z,101210
2023-03-11T01:27:00.798Z,101210
2023-03-11T01:28:00.634Z,101210
2023-03-11T01:29:00.598Z,101210
2023-03-11T01:30:00.701Z,101200
2023-03-11T01:31:00.684Z,101200
2023-03-11T01:32:00.584Z,101200
2023-03-11T01:33:00.906Z,101200
2023-03-11T01:34:00.608Z,101200
2023-03-11T01:35:00.608Z,101190
2023-03-11T01:36:00.649Z,101200
2023-03-11T01:37:01.408Z,101190
2023-03-11T01:38:00.772Z,101200
2023-03-11T01:39:00.557Z,101210
2023-03-11T01:40:00.644Z,101210
2023-03-11T01:41:00.611Z,101200
2023-03-11T01:42:00.610Z,101200
2023-03-11T01:43:01.282Z,101220
2023-03-11T01:44:00.640Z,101170
2023-03-11T01:45:00.653Z,101180
2023-03-11T01:46:00.584Z,101180
2023-03-11T01:47:00.573Z,101180
2023-03-11T01:48:00.611Z,101190
2023-03-11T01:49:02.036Z,101180
2023-03-11T01:50:01.173Z,101170
2023-03-11T01:51:00.742Z,101170
2023-03-11T01:52:01.830Z,101160
2023-03-11T01:53:01.207Z,101150
2023-03-11T01:54:03.080Z,101160
2023-03-11T01:55:00.599Z,101150
2023-03-11T01:56:02.349Z,101160
2023-03-11T01:57:04.068Z,101150
2023-03-11T01:58:03.053Z,101150
2023-03-11T01:59:00.676Z,101130
2023-03-11T02:00:01.316Z,101160
2023-03-11T02:01:01.301Z,101140
2023-03-11T02:02:10.630Z,101140
2023-03-11T02:03:01.817Z,101140
2023-03-11T02:04:02.043Z,101140
2023-03-11T02:05:01.189Z,101120
2023-03-11T02:06:01.739Z,101130
2023-03-11T02:07:01.325Z,101120
2023-03-11T02:08:00.829Z,101130
2023-03-11T02:09:00.717Z,101130
2023-03-11T02:10:00.617Z,101130
2023-03-11T02:11:02.324Z,101130
2023-03-11T02:12:01.605Z,101120
2023-03-11T02:13:01.854Z,101120
2023-03-11T02:14:03.796Z,101120
2023-03-11T02:15:01.319Z,101120
2023-03-11T02:16:01.395Z,101100
2023-03-11T02:17:00.705Z,101110
2023-03-11T02:18:02.145Z,101090
2023-03-11T02:19:07.704Z,101120
2023-03-11T02:20:00.597Z,101100
2023-03-11T02:21:04.851Z,101080
2023-03-11T02:22:01.422Z,101060
2023-03-11T02:23:00.938Z,101060
2023-03-11T02:24:00.601Z,101070
2023-03-11T02:25:04.026Z,101070
2023-03-11T02:26:06.561Z,101070
2023-03-11T02:27:02.035Z,101060
2023-03-11T02:28:02.352Z,101060
2023-03-11T02:29:02.999Z,101050
2023-03-11T02:30:01.105Z,101050
2023-03-11T02:31:01.294Z,101050
2023-03-11T02:32:01.905Z,101040
2023-03-11T02:33:01.198Z,101050
2023-03-11T02:34:01.760Z,101050
2023-03-11T02:35:00.653Z,101030
2023-03-11T02:36:00.635Z,101030
2023-03-11T02:37:03.468Z,101040
2023-03-11T02:38:00.650Z,101030
2023-03-11T02:39:00.867Z,101040
2023-03-11T02:40:10.488Z,101030
2023-03-11T02:41:01.103Z,101020
2023-03-11T02:42:03.689Z,101020
2023-03-11T02:43:02.453Z,101020
2023-03-11T02:44:01.768Z,101030
2023-03-11T02:45:03.543Z,101010
2023-03-11T02:46:01.127Z,101020
2023-03-11T02:47:01.017Z,101010
2023-03-11T02:48:01.185Z,100990
2023-03-11T02:49:00.967Z,101000
2023-03-11T02:50:00.812Z,101010
2023-03-11T02:51:01.234Z,101000
2023-03-11T02:52:00.618Z,101000
2023-03-11T02:53:00.616Z,101000
2023-03-11T02:54:02.840Z,100980
2023-03-11T02:55:01.130Z,101000
2023-03-11T02:56:00.661Z,100980
2023-03-11T02:57:00.600Z,100990
2023-03-11T02:58:00.631Z,100980
2023-03-11T02:59:00.613Z,100980
2023-03-11T03:00:00.612Z,100970
2023-03-11T03:01:00.603Z,100970
2023-03-11T03:02:00.623Z,100970
2023-03-11T03:03:00.580Z,100960
2023-03-11T03:04:00.730Z,100950
2023-03-11T03:05:00.639Z,100920
2023-03-11T03:06:00.852Z,100950
2023-03-11T03:07:00.661Z,100950
2023-03-11T03:08:00.906Z,100930
2023-03-11T03:09:00.737Z,100940
2023-03-11T03:10:00.614Z,100920
2023-03-11T03:11:00.647Z,100960
2023-03-11T03:12:00.736Z,100920
2023-03-11T03:13:00.588Z,100940
2023-03-11T03:14:00.560Z,100930
2023-03-11T03:15:00.565Z,100960
2023-03-11T03:16:00.946Z,100950
2023-03-11T03:17:00.854Z,100950
2023-03-11T03:18:00.630Z,100950
2023-03-11T03:19:00.567Z,100950
2023-03-11T03:20:00.632Z,100950
2023-03-11T03:21:00.616Z,100950
2023-03-11T03:22:00.578Z,100960
2023-03-11T03:23:00.694Z,100960
2023-03-11T03:24:00.618Z,100980
2023-03-11T03:25:00.596Z,100950
2023-03-11T03:26:00.868Z,100950
2023-03-11T03:27:00.601Z,100970
2023-03-11T03:28:00.953Z,100950
2023-03-11T03:29:00.585Z,100960
2023-03-11T03:30:00.928Z,100960
2023-03-11T03:31:08.902Z,100970
2023-03-11T03:32:00.640Z,100970
2023-03-11T03:33:00.633Z,100960
2023-03-11T03:34:00.617Z,100970
2023-03-11T03:35:00.936Z,100970
2023-03-11T03:36:04.660Z,100960
2023-03-11T03:37:00.618Z,100950
2023-03-11T03:38:01.023Z,100960
2023-03-11T03:39:01.509Z,100940
2023-03-11T03:40:00.766Z,100960
2023-03-11T03:41:00.617Z,100950
2023-03-11T03:42:00.629Z,100940
2023-03-11T03:43:00.613Z,100950
2023-03-11T03:44:00.700Z,100940
2023-03-11T03:45:01.066Z,100960
2023-03-11T03:46:02.065Z,100950
2023-03-11T03:47:00.677Z,100930
2023-03-11T03:48:00.574Z,100940
2023-03-11T03:49:00.607Z,100940
2023-03-11T03:50:02.513Z,100920
2023-03-11T03:51:02.756Z,100910
2023-03-11T03:52:00.576Z,100940
2023-03-11T03:53:00.659Z,100950
2023-03-11T03:54:00.589Z,100940
2023-03-11T03:55:00.687Z,100920
2023-03-11T03:56:02.972Z,100930
2023-03-11T03:57:00.612Z,100930
2023-03-11T03:58:00.674Z,100920
2023-03-11T03:59:00.590Z,100930
2023-03-11T04:00:00.580Z,100940
2023-03-11T04:01:00.625Z,100930
2023-03-11T04:02:00.778Z,100920
2023-03-11T04:03:00.733Z,100930
2023-03-11T04:04:00.602Z,100930
2023-03-11T04:05:00.674Z,100940
2023-03-11T04:06:09.355Z,100950
2023-03-11T04:07:02.393Z,100930
2023-03-11T04:08:00.651Z,100940
2023-03-11T04:09:00.634Z,100950
2023-03-11T04:10:01.013Z,100930
2023-03-11T04:11:00.753Z,100930
2023-03-11T04:12:00.851Z,100920
2023-03-11T04:13:00.577Z,100930
2023-03-11T04:14:00.796Z,100930
2023-03-11T04:15:00.598Z,100930
2023-03-11T04:16:02.695Z,100940
2023-03-11T04:17:00.662Z,100920
2023-03-11T04:18:00.622Z,100940
2023-03-11T04:19:00.669Z,100940
2023-03-11T04:20:00.654Z,100940
2023-03-11T04:21:04.032Z,100950
2023-03-11T04:22:00.568Z,100950
2023-03-11T04:23:00.682Z,100940
2023-03-11T04:24:00.606Z,100950
2023-03-11T04:25:00.894Z,100950
2023-03-11T04:26:00.626Z,100950
2023-03-11T04:27:00.629Z,100950
2023-03-11T04:28:00.566Z,100940
2023-03-11T04:29:00.613Z,100950
2023-03-11T04:30:00.604Z,100940
2023-03-11T04:31:00.710Z,100930
2023-03-11T04:32:00.598Z,100940
2023-03-11T04:33:00.563Z,100940
2023-03-11T04:34:00.668Z,100930
2023-03-11T04:35:00.607Z,100940
2023-03-11T04:36:04.262Z,100950
2023-03-11T04:37:00.779Z,100950
2023-03-11T04:38:00.653Z,100940
2023-03-11T04:39:00.625Z,100940
2023-03-11T04:40:00.655Z,100950
2023-03-11T04:41:01.222Z,100950
2023-03-11T04:42:03.546Z,100940
2023-03-11T04:43:00.584Z,100940
2023-03-11T04:44:00.621Z,100950
2023-03-11T04:45:00.736Z,100950
2023-03-11T04:46:00.598Z,100960
2023-03-11T04:47:00.654Z,100950
2023-03-11T04:48:00.575Z,100960
2023-03-11T04:49:00.683Z,100950
2023-03-11T04:50:00.563Z,100950
2023-03-11T04:51:00.800Z,100950
2023-03-11T04:52:00.649Z,100950
2023-03-11T04:53:00.655Z,100970
2023-03-11T04:54:00.695Z,100940
2023-03-11T04:55:00.597Z,100960
2023-03-11T04:56:00.699Z,100950
2023-03-11T04:57:00.549Z,100950
2023-03-11T04:58:00.595Z,100950
2023-03-11T04:59:00.670Z,100940
2023-03-11T05:00:00.924Z,100950
2023-03-11T05:01:00.623Z,100940
2023-03-11T05:02:00.645Z,100940
2023-03-11T05:03:00.709Z,100940
2023-03-11T05:04:00.618Z,100920
2023-03-11T05:05:00.746Z,100920
2023-03-11T05:06:00.623Z,100930
2023-03-11T05:07:00.665Z,100930
2023-03-11T05:08:00.621Z,100920
2023-03-11T05:09:00.599Z,100920
2023-03-11T05:10:00.597Z,100930
2023-03-11T05:11:00.576Z,100920
2023-03-11T05:12:00.594Z,100930
2023-03-11T05:13:00.596Z,100920
2023-03-11T05:14:00.594Z,100900
2023-03-11T05:15:00.593Z,100920
2023-03-11T05:16:00.664Z,100920
2023-03-11T05:17:00.584Z,100930
2023-03-11T05:18:00.645Z,100930
2023-03-11T05:19:00.594Z,100930
2023-03-11T05:20:00.601Z,100930
2023-03-11T05:21:00.583Z,100920
2023-03-11T05:22:01.420Z,100910
2023-03-11T05:23:00.638Z,100930
2023-03-11T05:24:00.601Z,100910
2023-03-11T05:25:01.092Z,100910
2023-03-11T05:26:00.555Z,100920
2023-03-11T05:27:00.810Z,100920
2023-03-11T05:28:00.585Z,100920
2023-03-11T05:29:00.663Z,100910
2023-03-11T05:30:01.268Z,100910
2023-03-11T05:31:00.663Z,100910
2023-03-11T05:32:00.641Z,100900
2023-03-11T05:33:00.606Z,100910
2023-03-11T05:34:00.608Z,100910
2023-03-11T05:35:00.664Z,100920
2023-03-11T05:36:04.296Z,100920
2023-03-11T05:37:03.008Z,100910
2023-03-11T05:38:00.618Z,100910
2023-03-11T05:39:00.665Z,100900
2023-03-11T05:40:00.668Z,100910
2023-03-11T05:41:00.692Z,100910
2023-03-11T05:42:00.585Z,100910
2023-03-11T05:43:00.608Z,100910
2023-03-11T05:44:00.633Z,100900
2023-03-11T05:45:00.655Z,100900
2023-03-11T05:46:00.633Z,100900
2023-03-11T05:47:00.696Z,100910
2023-03-11T05:48:00.598Z,100860
2023-03-11T05:49:00.798Z,100900
2023-03-11T05:50:00.654Z,100880
2023-03-11T05:51:05.008Z,100900
2023-03-11T05:52:00.670Z,100900
2023-03-11T05:53:00.605Z,100890
2023-03-11T05:54:00.636Z,100890
2023-03-11T05:55:00.602Z,100890
2023-03-11T05:56:00.923Z,100880
2023-03-11T05:57:00.627Z,100900
2023-03-11T05:58:00.782Z,100890
2023-03-11T05:59:00.581Z,100890
2023-03-11T06:00:00.607Z,100890
2023-03-11T06:01:00.605Z,100880
2023-03-11T06:02:00.926Z,100880
2023-03-11T06:03:00.596Z,100870
2023-03-11T06:04:00.948Z,100880
2023-03-11T06:05:00.760Z,100890
2023-03-11T06:06:00.609Z,100880
2023-03-11T06:07:00.636Z,100890
2023-03-11T06:08:00.600Z,100860
2023-03-11T06:09:00.630Z,100870
2023-03-11T06:10:01.230Z,100840
2023-03-11T06:11:03.446Z,100860
2023-03-11T06:12:00.604Z,100850
2023-03-11T06:13:00.607Z,100860
2023-03-11T06:14:00.606Z,100860
2023-03-11T06:15:00.603Z,100860
2023-03-11T06:16:00.761Z,100840
2023-03-11T06:17:00.594Z,100840
2023-03-11T06:18:00.942Z,100840
2023-03-11T06:19:00.661Z,100850
2023-03-11T06:20:00.652Z,100830
2023-03-11T06:21:00.973Z,100840
2023-03-11T06:22:01.255Z,100830
2023-03-11T06:23:00.617Z,100850
2023-03-11T06:24:00.860Z,100840
2023-03-11T06:25:00.592Z,100830
2023-03-11T06:26:02.611Z,100810
2023-03-11T06:27:00.587Z,100830
2023-03-11T06:28:00.635Z,100830
2023-03-11T06:29:00.550Z,100830
2023-03-11T06:30:00.621Z,100810
2023-03-11T06:31:08.587Z,100820
2023-03-11T06:32:00.587Z,100830
2023-03-11T06:33:00.630Z,100830
2023-03-11T06:34:00.618Z,100820
2023-03-11T06:35:00.662Z,100830
2023-03-11T06:36:01.681Z,100810
2023-03-11T06:37:00.745Z,100830
2023-03-11T06:38:00.583Z,100830
2023-03-11T06:39:00.592Z,100830
2023-03-11T06:40:00.612Z,100830
2023-03-11T06:41:01.246Z,100790
2023-03-11T06:42:00.587Z,100820
2023-03-11T06:43:00.589Z,100810
2023-03-11T06:44:00.726Z,100790
2023-03-11T06:45:00.825Z,100820
2023-03-11T06:46:01.312Z,100800
2023-03-11T06:47:01.372Z,100810
2023-03-11T06:48:00.564Z,100810
2023-03-11T06:49:00.609Z,100780
2023-03-11T06:50:00.628Z,100800
2023-03-11T06:51:00.982Z,100800
2023-03-11T06:52:00.623Z,100800
2023-03-11T06:53:00.627Z,100800
2023-03-11T06:54:00.651Z,100780
2023-03-11T06:55:00.748Z,100810
2023-03-11T06:56:00.624Z,100770
2023-03-11T06:57:01.113Z,100790
2023-03-11T06:58:00.661Z,100800
2023-03-11T06:59:00.588Z,100810
2023-03-11T07:00:00.803Z,100790
2023-03-11T07:01:02.100Z,100780
2023-03-11T07:02:01.269Z,100800
2023-03-11T07:03:00.555Z,100780
2023-03-11T07:04:00.760Z,100780
2023-03-11T07:05:00.638Z,100800
2023-03-11T07:06:00.880Z,100760
2023-03-11T07:07:00.576Z,100780
2023-03-11T07:08:00.637Z,100750
2023-03-11T07:09:00.552Z,100760
2023-03-11T07:10:00.670Z,100750
2023-03-11T07:11:00.567Z,100790
2023-03-11T07:12:00.607Z,100780
2023-03-11T07:13:00.686Z,100770
2023-03-11T07:14:00.601Z,100790
2023-03-11T07:15:00.717Z,100770
2023-03-11T07:16:01.382Z,100780
2023-03-11T07:17:00.881Z,100770
2023-03-11T07:18:00.645Z,100790
2023-03-11T07:19:00.924Z,100790
2023-03-11T07:20:00.628Z,100800
2023-03-11T07:21:01.785Z,100790
2023-03-11T07:22:00.648Z,100790
2023-03-11T07:23:00.589Z,100760
2023-03-11T07:24:01.549Z,100790
2023-03-11T07:25:00.617Z,100780
2023-03-11T07:26:01.057Z,100780
2023-03-11T07:27:00.602Z,100800
2023-03-11T07:28:00.603Z,100760
2023-03-11T07:29:00.824Z,100780
2023-03-11T07:30:01.525Z,100790
2023-03-11T07:31:05.533Z,100780
2023-03-11T07:32:00.668Z,100800
2023-03-11T07:33:00.701Z,100780
2023-03-11T07:34:01.995Z,100770
2023-03-11T07:35:00.784Z,100790
2023-03-11T07:36:04.238Z,100770
2023-03-11T07:37:00.614Z,100780
2023-03-11T07:38:00.637Z,100770
2023-03-11T07:39:04.136Z,100820
2023-03-11T07:40:00.625Z,100800
2023-03-11T07:41:00.641Z,100790
2023-03-11T07:42:00.637Z,100770
2023-03-11T07:43:00.612Z,100790
2023-03-11T07:44:01.412Z,100780
2023-03-11T07:45:00.622Z,100780
2023-03-11T07:46:01.647Z,100770
2023-03-11T07:47:02.714Z,100790
2023-03-11T07:48:00.606Z,100760
2023-03-11T07:49:00.581Z,100780
2023-03-11T07:50:00.605Z,100750
2023-03-11T07:51:03.017Z,100780
2023-03-11T07:52:00.770Z,100790
2023-03-11T07:53:00.643Z,100790
2023-03-11T07:54:01.169Z,100750
2023-03-11T07:59:01.491Z,100770
2023-03-11T08:00:00.848Z,100770
2023-03-11T08:01:05.436Z,100760
2023-03-11T08:02:01.809Z,100750
2023-03-11T08:03:00.772Z,100760
2023-03-11T08:04:01.550Z,100800
2023-03-11T08:05:00.605Z,100740
2023-03-11T08:06:00.944Z,100770
2023-03-11T08:07:00.562Z,100780
2023-03-11T08:08:00.615Z,100780
2023-03-11T08:09:02.761Z,100770
2023-03-11T08:10:00.692Z,100760
2023-03-11T08:11:02.134Z,100750
2023-03-11T08:12:00.598Z,100740
2023-03-11T08:13:00.598Z,100740
2023-03-11T08:14:00.759Z,100750
2023-03-11T08:15:00.645Z,100750
2023-03-11T08:16:04.608Z,100760
2023-03-11T08:17:00.584Z,100770
2023-03-11T08:18:00.602Z,100760
2023-03-11T08:19:00.708Z,100750
2023-03-11T08:20:00.679Z,100770
2023-03-11T08:21:04.518Z,100770
2023-03-11T08:22:02.374Z,100760
2023-03-11T08:23:00.663Z,100770
2023-03-11T08:24:01.079Z,100760
2023-03-11T08:25:00.692Z,100780
2023-03-11T08:26:02.610Z,100760
2023-03-11T08:27:00.689Z,100780
2023-03-11T08:28:00.609Z,100780
2023-03-11T08:29:00.621Z,100790
2023-03-11T08:30:00.641Z,100800
2023-03-11T08:31:00.774Z,100770
2023-03-11T08:32:01.748Z,100790
2023-03-11T08:33:00.666Z,100770
2023-03-11T08:34:03.301Z,100750
2023-03-11T08:35:01.104Z,100800
2023-03-11T08:36:00.739Z,100800
2023-03-11T08:37:00.675Z,100790
2023-03-11T08:38:00.636Z,100790
2023-03-11T08:39:00.996Z,100810
2023-03-11T08:40:00.671Z,100800
2023-03-11T08:41:00.651Z,100810
2023-03-11T08:42:00.921Z,100800
2023-03-11T08:43:00.598Z,100830
2023-03-11T08:44:01.211Z,100790
2023-03-11T08:45:00.931Z,100810
2023-03-11T08:46:01.362Z,100810
2023-03-11T08:47:00.647Z,100800
2023-03-11T08:48:00.594Z,100820
2023-03-11T08:49:01.512Z,100800
2023-03-11T08:50:00.869Z,100810
2023-03-11T08:51:00.590Z,100830
2023-03-11T08:52:01.194Z,100840
2023-03-11T08:53:00.646Z,100850
2023-03-11T08:54:01.239Z,100870
2023-03-11T08:55:00.622Z,100840
2023-03-11T08:56:00.597Z,100850
2023-03-11T08:57:00.812Z,100860
2023-03-11T08:58:00.734Z,100850
2023-03-11T08:59:00.690Z,100830
2023-03-11T09:00:00.603Z,100830
2023-03-11T09:01:00.766Z,100840
2023-03-11T09:02:00.646Z,100840
2023-03-11T09:03:00.752Z,100840
2023-03-11T09:04:00.639Z,100830
2023-03-11T09:05:00.706Z,100820
2023-03-11T09:06:01.506Z,100840
2023-03-11T09:07:00.582Z,100820
2023-03-11T09:08:01.126Z,100830
2023-03-11T09:09:00.686Z,100850
2023-03-11T09:10:00.658Z,100820
2023-03-11T09:11:00.651Z,100850
2023-03-11T09:12:00.608Z,100840
2023-03-11T09:13:00.673Z,100840
2023-03-11T09:14:00.581Z,100830
2023-03-11T09:15:00.580Z,100840
2023-03-11T09:16:00.845Z,100850
2023-03-11T09:17:00.577Z,100840
2023-03-11T09:18:00.611Z,100830
2023-03-11T09:19:00.645Z,100850
2023-03-11T09:20:00.836Z,100850
2023-03-11T09:21:00.583Z,100840
2023-03-11T09:22:01.060Z,100850
2023-03-11T09:23:00.601Z,100850
2023-03-11T09:24:00.633Z,100860
2023-03-11T09:25:00.648Z,100850
2023-03-11T09:26:00.597Z,100870
2023-03-11T09:27:01.078Z,100850
2023-03-11T09:28:00.593Z,100840
2023-03-11T09:29:00.595Z,100860
2023-03-11T09:30:00.635Z,100860
2023-03-11T09:31:00.669Z,100870
2023-03-11T09:32:00.570Z,100860
2023-03-11T09:33:00.655Z,100840
2023-03-11T09:34:00.549Z,100860
2023-03-11T09:35:00.687Z,100840
2023-03-11T09:36:00.644Z,100850
2023-03-11T09:37:00.749Z,100860
2023-03-11T09:38:00.603Z,100850
2023-03-11T09:39:00.614Z,100860
2023-03-11T09:40:00.611Z,100860
2023-03-11T09:41:04.433Z,100840
2023-03-11T09:42:05.313Z,100870
2023-03-11T09:43:03.927Z,100850
2023-03-11T09:44:10.495Z,100850
2023-03-11T09:45:10.235Z,100850
2023-03-11T09:46:06.368Z,100840
2023-03-11T09:47:01.765Z,100880
2023-03-11T09:48:00.579Z,100850
2023-03-11T09:49:10.420Z,100840
2023-03-11T09:50:01.622Z,100840
2023-03-11T09:51:01.602Z,100870
2023-03-11T09:52:06.434Z,100860
2023-03-11T09:53:07.513Z,100850
2023-03-11T09:54:05.394Z,100850
2023-03-11T09:55:02.671Z,100840
2023-03-11T09:56:02.918Z,100850
2023-03-11T09:57:02.127Z,100850
2023-03-11T09:58:02.729Z,100860
2023-03-11T09:59:03.880Z,100860
2023-03-11T10:00:01.763Z,100860
2023-03-11T10:01:01.294Z,100850
2023-03-11T10:02:00.791Z,100880
2023-03-11T10:03:01.268Z,100850
2023-03-11T10:04:08.267Z,100840
2023-03-11T10:05:05.698Z,100860
2023-03-11T10:06:10.443Z,100860
2023-03-11T10:07:02.052Z,100870
2023-03-11T10:08:00.603Z,100870
2023-03-11T10:09:06.037Z,100870
2023-03-11T10:10:00.652Z,100870
2023-03-11T10:11:09.517Z,100880
2023-03-11T10:12:00.568Z,100880
2023-03-11T10:13:10.492Z,100880
2023-03-11T10:14:00.560Z,100850
2023-03-11T10:15:10.413Z,100890
2023-03-11T10:16:03.995Z,100890
2023-03-11T10:17:01.628Z,100870
2023-03-11T10:18:01.635Z,100890
2023-03-11T10:19:10.397Z,100900
2023-03-11T10:20:00.599Z,100900
2023-03-11T10:21:07.754Z,100900
2023-03-11T10:22:08.508Z,100900
2023-03-11T10:23:07.807Z,100910
2023-03-11T10:24:10.477Z,100920
2023-03-11T10:25:08.604Z,100920
2023-03-11T10:26:04.094Z,100910
2023-03-11T10:27:06.063Z,100920
2023-03-11T10:28:10.434Z,100920
2023-03-11T10:29:00.580Z,100920
2023-03-11T10:30:10.461Z,100940
2023-03-11T10:31:05.019Z,100920
2023-03-11T10:32:01.613Z,100930
2023-03-11T10:33:05.774Z,100930
2023-03-11T10:34:03.406Z,100940
2023-03-11T10:35:10.501Z,100930
2023-03-11T10:36:10.489Z,100940
2023-03-11T10:37:00.574Z,100950
2023-03-11T10:38:04.648Z,100950
2023-03-11T10:39:01.237Z,100960
2023-03-11T10:40:04.364Z,100960
2023-03-11T10:41:03.910Z,100960
2023-03-11T10:42:03.476Z,100960
2023-03-11T10:43:03.080Z,100960
2023-03-11T10:44:03.091Z,100950
2023-03-11T10:45:00.652Z,100950
2023-03-11T10:46:04.192Z,100960
2023-03-11T10:47:00.684Z,100960
2023-03-11T10:48:00.596Z,100970
2023-03-11T10:49:00.653Z,100960
2023-03-11T10:50:00.599Z,100960
2023-03-11T10:51:02.137Z,100960
2023-03-11T10:52:01.854Z,100960
2023-03-11T10:53:03.769Z,100970
2023-03-11T10:54:01.365Z,100910
2023-03-11T10:55:01.650Z,100950
2023-03-11T10:56:00.636Z,100960
2023-03-11T10:57:01.813Z,100940
2023-03-11T10:58:05.300Z,100960
2023-03-11T10:59:01.693Z,100970
2023-03-11T11:00:02.556Z,100960
2023-03-11T11:01:03.826Z,100950
2023-03-11T11:02:02.499Z,100970
2023-03-11T11:03:00.576Z,100970
2023-03-11T11:04:01.118Z,100970
2023-03-11T11:05:06.718Z,100970
2023-03-11T11:06:02.981Z,100970
2023-03-11T11:07:10.462Z,100980
2023-03-11T11:08:10.491Z,100970
2023-03-11T11:09:10.473Z,100980
2023-03-11T11:10:10.474Z,100980
2023-03-11T11:11:02.830Z,100990
2023-03-11T11:12:00.681Z,100990
2023-03-11T11:13:00.646Z,100980
2023-03-11T11:14:00.643Z,100980
2023-03-11T11:15:00.667Z,100960
2023-03-11T11:16:01.621Z,100980
2023-03-11T11:17:00.773Z,100980
2023-03-11T11:18:03.907Z,100990
2023-03-11T11:19:03.698Z,100980
2023-03-11T11:20:02.400Z,100990
2023-03-11T11:21:10.465Z,101000
2023-03-11T11:22:03.513Z,100990
2023-03-11T11:23:01.547Z,100990
2023-03-11T11:24:00.603Z,101000
2023-03-11T11:25:00.695Z,101000
2023-03-11T11:26:02.250Z,100990
2023-03-11T11:27:03.320Z,101010
2023-03-11T11:28:02.634Z,101000
2023-03-11T11:29:05.962Z,100980
2023-03-11T11:30:08.105Z,101000
2023-03-11T11:31:02.244Z,101000
2023-03-11T11:32:10.460Z,101000
2023-03-11T11:33:10.487Z,101000
2023-03-11T11:34:00.641Z,101000
2023-03-11T11:35:00.608Z,101000
2023-03-11T11:36:02.509Z,101000
2023-03-11T11:37:01.750Z,101000
2023-03-11T11:38:01.863Z,100990
2023-03-11T11:39:00.663Z,100990
2023-03-11T11:40:03.813Z,101000
2023-03-11T11:41:01.817Z,101000
2023-03-11T11:42:00.678Z,100990
2023-03-11T11:43:03.701Z,100990
2023-03-11T11:44:02.821Z,101000
2023-03-11T11:45:03.347Z,100980
2023-03-11T11:46:04.672Z,101000
2023-03-11T11:47:10.479Z,100980
2023-03-11T11:48:04.193Z,100990
2023-03-11T11:49:10.436Z,100990
2023-03-11T11:50:02.817Z,100980
2023-03-11T11:51:01.974Z,100970
2023-03-11T11:52:08.055Z,100980
2023-03-11T11:53:10.121Z,100970
2023-03-11T11:54:05.762Z,100980
2023-03-11T11:55:01.554Z,100980
2023-03-11T11:56:00.931Z,100980
2023-03-11T11:57:08.388Z,100980
2023-03-11T11:58:00.602Z,100980
2023-03-11T11:59:00.620Z,100970
2023-03-11T12:00:01.326Z,100970
2023-03-11T12:01:06.394Z,100960
2023-03-11T12:02:10.449Z,100950
2023-03-11T12:03:10.471Z,100960
2023-03-11T12:04:10.477Z,100960
2023-03-11T12:05:08.017Z,100960
2023-03-11T12:06:06.514Z,100950
2023-03-11T12:07:00.541Z,100940
2023-03-11T12:08:08.640Z,100930
2023-03-11T12:09:10.454Z,100920
2023-03-11T12:10:22.138Z,100940
2023-03-11T12:11:03.868Z,100920
2023-03-11T12:12:08.036Z,100920
2023-03-11T12:13:08.038Z,100910
2023-03-11T12:14:10.450Z,100920
2023-03-11T12:15:00.533Z,100930
2023-03-11T12:16:10.567Z,100920
2023-03-11T12:17:04.208Z,100910
2023-03-11T12:18:02.638Z,100910
2023-03-11T12:19:10.472Z,100920
2023-03-11T12:20:10.465Z,100910
2023-03-11T12:21:08.741Z,100910
2023-03-11T12:22:09.781Z,100910
2023-03-11T12:23:10.426Z,100910
2023-03-11T12:24:01.585Z,100910
2023-03-11T12:25:07.634Z,100900
2023-03-11T12:26:10.489Z,100900
2023-03-11T12:27:07.587Z,100900
2023-03-11T12:28:00.568Z,100900
2023-03-11T12:29:05.869Z,100910
2023-03-11T12:30:04.198Z,100890
2023-03-11T12:31:02.587Z,100900
2023-03-11T12:32:01.345Z,100900